Time;durP1;ratioP1;P1;durP2;ratioP2;P2;SDS_P1;SDS_P2;PMS_P1;PMS_P2;Temp;Humidity;BMP_temperature;BMP_pressure;BME280_temperature;BME280_humidity;BME280_pressure;Samples;Min_cycle;Max_cycle;Signal;HPM_P1;HPM_P2
2021/12/27 00:01:12;;;;;;;75.90;26.65;;;;;;;2.81;100.00;99935.19;4996310;28;20117;-78
2021/12/27 00:03:38;;;;;;;83.40;28.08;;;;;;;2.78;100.00;99933.53;5008783;28;20117;-78
2021/12/27 00:06:04;;;;;;;71.82;27.23;;;;;;;2.80;100.00;99919.94;5004507;28;20061;-78
2021/12/27 00:08:30;;;;;;;80.43;26.25;;;;;;;2.77;100.00;99920.97;4997246;28;20081;-78
2021/12/27 00:10:56;;;;;;;67.75;26.23;;;;;;;2.76;100.00;99925.50;5006686;28;20122;-79
2021/12/27 00:13:21;;;;;;;79.18;27.10;;;;;;;2.80;100.00;99922.63;5002149;28;20030;-78
2021/12/27 00:15:47;;;;;;;67.25;26.20;;;;;;;2.79;100.00;99928.97;5004168;28;20033;-78
2021/12/27 00:18:13;;;;;;;74.43;26.40;;;;;;;2.78;100.00;99924.56;5018906;28;20050;-78
2021/12/27 00:20:39;;;;;;;74.43;25.75;;;;;;;2.76;100.00;99922.81;4991509;28;20480;-78
2021/12/27 00:23:04;;;;;;;75.88;26.80;;;;;;;2.74;100.00;99919.34;4997383;28;20042;-78
2021/12/27 00:25:30;;;;;;;89.25;27.98;;;;;;;2.82;100.00;99917.97;4997990;28;20027;-78
2021/12/27 00:27:56;;;;;;;72.53;26.63;;;;;;;2.84;100.00;99908.81;4980629;28;20039;-78
2021/12/27 00:30:22;;;;;;;75.03;25.15;;;;;;;2.79;100.00;99915.47;5001474;28;20054;-79
2021/12/27 00:32:48;;;;;;;78.28;27.80;;;;;;;2.84;100.00;99916.09;4995678;28;20564;-78
2021/12/27 00:35:17;;;;;;;73.13;27.17;;;;;;;2.79;100.00;99913.66;5012182;28;20085;-78
2021/12/27 00:37:44;;;;;;;76.47;27.30;;;;;;;2.82;100.00;99908.06;4996133;28;20034;-79
2021/12/27 00:40:13;;;;;;;76.53;27.88;;;;;;;2.76;100.00;99898.50;5001506;28;20422;-78
2021/12/27 00:42:39;;;;;;;79.70;27.02;;;;;;;2.82;100.00;99913.47;5011634;28;20034;-78
2021/12/27 00:45:05;;;;;;;80.78;26.75;;;;;;;2.80;100.00;99901.00;5007398;28;20034;-79
2021/12/27 00:47:30;;;;;;;82.07;26.65;;;;;;;2.80;100.00;99909.13;5010904;28;20040;-79
2021/12/27 00:49:56;;;;;;;90.80;29.85;;;;;;;2.79;100.00;99908.25;5008758;28;20034;-78
2021/12/27 00:52:21;;;;;;;97.35;27.83;;;;;;;2.86;100.00;99895.22;4996431;28;20072;-78
2021/12/27 00:54:47;;;;;;;91.50;28.92;;;;;;;2.88;100.00;99893.28;4994257;28;20062;-79
2021/12/27 00:57:12;;;;;;;83.03;27.88;;;;;;;2.82;100.00;99885.56;5010032;28;20049;-78
2021/12/27 00:59:38;;;;;;;95.60;29.55;;;;;;;2.80;100.00;99888.34;5003314;28;20538;-78
2021/12/27 01:02:03;;;;;;;89.55;28.55;;;;;;;2.81;100.00;99892.81;5013862;28;20080;-79
2021/12/27 01:04:29;;;;;;;102.68;31.15;;;;;;;2.78;100.00;99884.88;5009786;28;20061;-78
2021/12/27 01:06:54;;;;;;;88.88;27.80;;;;;;;2.88;100.00;99882.47;5005551;28;20072;-79
2021/12/27 01:09:37;;;;;;;89.45;28.50;;;;;;;2.86;100.00;99890.66;4998770;28;20042;-79
2021/12/27 01:12:26;;;;;;;95.07;29.70;;;;;;;2.86;100.00;99882.56;4995271;28;20038;-78
2021/12/27 01:15:33;;;;;;;99.95;28.85;;;;;;;2.82;100.00;99881.03;5030481;28;20038;-79
2021/12/27 01:17:47;;;;;;;98.55;28.33;;;;;;;2.82;100.00;99874.75;5014533;28;20045;-79
2021/12/27 01:20:20;;;;;;;88.55;27.90;;;;;;;2.83;100.00;99876.50;4994325;28;20033;-79
2021/12/27 01:22:46;;;;;;;100.20;28.88;;;;;;;2.78;100.00;99879.47;5001450;28;20031;-78
2021/12/27 01:25:15;;;;;;;99.55;29.75;;;;;;;2.82;100.00;99874.75;4995741;28;20034;-79
2021/12/27 01:27:43;;;;;;;117.65;30.65;;;;;;;2.82;100.00;99878.34;5008493;28;20457;-79
2021/12/27 01:30:12;;;;;;;92.97;28.70;;;;;;;2.84;100.00;99880.94;5012919;28;20551;-78
2021/12/27 01:32:45;;;;;;;94.68;29.02;;;;;;;2.80;100.00;99871.28;4977624;28;20042;-78
2021/12/27 01:35:10;;;;;;;;;;;;;;;2.88;100.00;99874.34;5009229;28;20050;-78
2021/12/27 01:37:36;;;;;;;91.78;27.85;;;;;;;2.88;100.00;99883.31;5001373;28;19913;-78
2021/12/27 01:40:04;;;;;;;95.47;29.40;;;;;;;2.91;100.00;99874.16;5005050;28;20149;-79
2021/12/27 01:42:30;;;;;;;95.07;29.40;;;;;;;2.86;100.00;99870.91;4995142;28;20090;-79
2021/12/27 01:44:55;;;;;;;95.28;28.52;;;;;;;2.83;100.00;99857.56;5006909;28;20038;-79
2021/12/27 01:47:20;;;;;;;96.57;28.92;;;;;;;2.85;100.00;99866.44;5015264;28;20025;-78
2021/12/27 01:49:46;;;;;;;101.15;30.27;;;;;;;2.82;100.00;99853.13;4999434;28;20117;-79
2021/12/27 01:52:12;;;;;;;110.63;30.13;;;;;;;2.95;100.00;99870.28;4994501;28;20049;-79
2021/12/27 01:54:37;;;;;;;98.70;29.70;;;;;;;2.94;100.00;99869.44;5014752;28;20073;-79
2021/12/27 01:57:03;;;;;;;97.53;30.50;;;;;;;2.92;100.00;99862.41;5014310;28;20153;-78
2021/12/27 01:59:28;;;;;;;99.72;30.63;;;;;;;2.98;100.00;99864.69;5012464;28;20076;-79
2021/12/27 02:01:54;;;;;;;110.30;32.42;;;;;;;2.92;100.00;99865.09;5013579;28;20030;-79
2021/12/27 02:04:20;;;;;;;99.72;30.33;;;;;;;2.93;100.00;99874.94;5009659;28;20045;-79
2021/12/27 02:06:45;;;;;;;108.50;31.05;;;;;;;3.00;100.00;99868.19;5014946;28;20030;-79
2021/12/27 02:09:11;;;;;;;102.78;29.67;;;;;;;2.93;100.00;99854.16;5010657;28;20121;-78
2021/12/27 02:11:36;;;;;;;99.53;32.05;;;;;;;2.97;100.00;99864.78;4999478;28;20072;-79
2021/12/27 02:14:04;;;;;;;102.05;30.88;;;;;;;3.00;100.00;99860.06;4994058;28;20026;-78
2021/12/27 02:16:29;;;;;;;95.30;29.10;;;;;;;3.04;100.00;99860.75;4987987;28;20060;-79
2021/12/27 02:18:55;;;;;;;125.00;32.40;;;;;;;3.01;100.00;99861.78;5000189;28;20034;-79
2021/12/27 02:21:22;;;;;;;108.45;30.17;;;;;;;3.07;100.00;99852.44;5002723;28;20030;-79
2021/12/27 02:23:49;;;;;;;112.47;31.17;;;;;;;3.06;100.00;99861.50;5010659;28;20054;-79
2021/12/27 02:26:15;;;;;;;115.25;30.75;;;;;;;3.05;100.00;99855.25;5006955;28;20038;-79
2021/12/27 02:28:41;;;;;;;111.97;30.50;;;;;;;3.04;100.00;99858.91;5008537;28;20034;-79
2021/12/27 02:31:08;;;;;;;104.25;30.75;;;;;;;3.08;100.00;99857.75;5005251;28;20045;-79
2021/12/27 02:33:37;;;;;;;104.45;31.13;;;;;;;3.03;100.00;99856.28;4995226;28;20034;-79
2021/12/27 02:36:05;;;;;;;99.63;30.75;;;;;;;3.01;100.00;99845.56;4994058;28;20050;-79
2021/12/27 02:38:33;;;;;;;111.90;30.83;;;;;;;3.10;100.00;99842.28;4995222;28;20038;-79
2021/12/27 02:40:59;;;;;;;121.35;32.17;;;;;;;3.11;100.00;99845.84;5011176;28;20140;-79
2021/12/27 02:43:28;;;;;;;118.70;30.63;;;;;;;2.98;100.00;99826.84;5016597;28;20130;-79
2021/12/27 02:45:56;;;;;;;104.70;31.45;;;;;;;3.07;100.00;99842.47;5011098;28;20120;-79
2021/12/27 02:48:25;;;;;;;113.38;30.88;;;;;;;3.05;100.00;99833.59;5017556;28;20488;-79
2021/12/27 02:50:52;;;;;;;119.15;31.55;;;;;;;3.16;100.00;99832.03;5002610;28;20030;-79
2021/12/27 02:53:18;;;;;;;120.18;31.67;;;;;;;3.20;100.00;99837.16;4999676;28;20397;-80
2021/12/27 02:55:44;;;;;;;97.93;30.52;;;;;;;3.14;100.00;99832.13;4994118;28;20046;-80
2021/12/27 02:58:09;;;;;;;114.53;31.00;;;;;;;3.12;100.00;99829.53;4985518;28;20429;-79
2021/12/27 03:00:42;;;;;;;109.32;31.13;;;;;;;3.18;100.00;99824.69;5001675;28;20394;-79
2021/12/27 03:03:08;;;;;;;114.82;30.75;;;;;;;3.26;100.00;99828.63;5003879;28;20034;-79
2021/12/27 03:05:33;;;;;;;126.65;30.30;;;;;;;3.23;100.00;99825.25;5017972;28;20361;-79
2021/12/27 03:08:00;;;;;;;104.18;29.23;;;;;;;3.23;100.00;99820.72;5012633;28;20089;-78
2021/12/27 03:10:29;;;;;;;112.22;30.15;;;;;;;3.26;100.00;99825.94;5006777;28;20065;-79
2021/12/27 03:12:56;;;;;;;115.18;31.08;;;;;;;3.30;100.00;99816.63;4996242;28;20670;-79
2021/12/27 03:15:23;;;;;;;107.88;29.38;;;;;;;3.30;100.00;99815.78;4997530;28;20030;-79
2021/12/27 03:17:51;;;;;;;116.40;30.75;;;;;;;3.25;100.00;99807.97;5005877;28;20034;-79
2021/12/27 03:20:19;;;;;;;111.93;30.05;;;;;;;3.36;100.00;99819.91;4992138;28;20031;-79
2021/12/27 03:22:45;;;;;;;102.85;29.95;;;;;;;3.35;100.00;99819.03;5017359;28;20467;-79
2021/12/27 03:25:22;;;;;;;114.68;30.90;;;;;;;3.36;100.00;99803.66;4997811;28;20175;-80
2021/12/27 03:27:49;;;;;;;109.25;30.85;;;;;;;3.35;100.00;99808.22;5001138;28;20038;-78
2021/12/27 03:30:26;;;;;;;104.50;29.88;;;;;;;3.33;100.00;99817.41;4998588;28;20045;-79
2021/12/27 03:32:52;;;;;;;118.97;31.60;;;;;;;3.40;100.00;99806.06;5016195;28;20057;-79
2021/12/27 03:35:25;;;;;;;114.18;29.38;;;;;;;3.47;100.00;99809.25;5008488;28;20532;-79
2021/12/27 03:37:52;;;;;;;;;;;;;;;3.38;100.00;99810.72;5007465;28;20062;-79
2021/12/27 03:40:19;;;;;;;111.35;30.42;;;;;;;3.43;100.00;99815.84;5010610;28;20372;-80
2021/12/27 03:42:52;;;;;;;108.53;29.63;;;;;;;3.40;100.00;99814.19;4997014;28;20072;-79
2021/12/27 03:45:30;;;;;;;102.20;29.65;;;;;;;3.46;100.00;99810.19;5008590;28;20563;-79
2021/12/27 03:47:56;;;;;;;111.68;31.15;;;;;;;3.45;100.00;99805.78;5016633;28;20034;-79
2021/12/27 03:50:24;;;;;;;104.70;30.15;;;;;;;3.55;100.00;99809.59;5011707;28;20057;-80
2021/12/27 03:52:51;;;;;;;105.55;30.10;;;;;;;3.47;100.00;99804.69;5006910;28;20066;-79
2021/12/27 03:55:16;;;;;;;114.97;27.65;;;;;;;3.53;100.00;99794.44;4979846;28;20089;-79
2021/12/27 03:57:50;;;;;;;104.72;28.88;;;;;;;3.52;100.00;99803.53;4996827;28;20035;-79
2021/12/27 04:02:53;;;;;;;123.28;30.33;;;;;;;3.51;100.00;99799.97;5002315;28;20093;-79
2021/12/27 04:05:20;;;;;;;124.55;31.33;;;;;;;3.58;100.00;99803.13;5010422;28;20034;-79
2021/12/27 04:07:55;;;;;;;109.20;30.52;;;;;;;3.54;100.00;99793.44;4999428;28;20076;-79
2021/12/27 04:10:21;;;;;;;109.47;30.15;;;;;;;3.66;100.00;99782.69;5015488;28;20026;-79
2021/12/27 04:12:46;;;;;;;127.75;30.92;;;;;;;3.54;100.00;99772.66;5015229;28;20065;-79
2021/12/27 04:15:12;;;;;;;107.32;30.02;;;;;;;3.62;100.00;99778.47;4996325;28;20064;-79
2021/12/27 04:17:37;;;;;;;110.53;29.73;;;;;;;3.59;100.00;99775.94;5014122;28;20452;-79
2021/12/27 04:20:04;;;;;;;105.75;29.38;;;;;;;3.60;100.00;99774.09;4997625;28;20057;-78
2021/12/27 04:22:33;;;;;;;124.03;30.65;;;;;;;3.64;100.00;99776.50;4996666;28;20096;-79
2021/12/27 04:25:02;;;;;;;98.82;27.33;;;;;;;3.63;100.00;99774.75;5014198;28;20088;-79
2021/12/27 04:27:28;;;;;;;113.15;29.55;;;;;;;3.65;100.00;99761.13;5016126;28;20037;-79
2021/12/27 04:29:53;;;;;;;112.25;30.73;;;;;;;3.64;100.00;99767.50;4997626;28;20048;-79
2021/12/27 04:32:19;;;;;;;109.45;27.98;;;;;;;3.60;100.00;99757.88;4998219;28;20026;-79
2021/12/27 04:34:45;;;;;;;92.05;29.27;;;;;;;3.70;100.00;99755.41;5014158;28;20128;-79
2021/12/27 04:37:11;;;;;;;115.03;29.65;;;;;;;3.63;100.00;99760.38;5013820;28;20539;-78
2021/12/27 04:39:36;;;;;;;99.03;28.20;;;;;;;3.64;100.00;99760.25;5013301;28;20368;-79
2021/12/27 04:42:04;;;;;;;112.65;29.92;;;;;;;3.65;100.00;99755.72;4997789;28;20435;-79
2021/12/27 04:44:30;;;;;;;107.57;28.25;;;;;;;3.68;100.00;99755.50;4994573;28;20383;-79
2021/12/27 04:46:55;;;;;;;103.15;29.80;;;;;;;3.68;100.00;99766.34;4996050;28;20040;-79
2021/12/27 04:49:21;;;;;;;123.68;29.58;;;;;;;3.66;100.00;99752.03;4995841;28;20036;-79
2021/12/27 04:51:46;;;;;;;91.88;28.23;;;;;;;3.74;100.00;99743.38;5007079;28;20040;-79
2021/12/27 04:54:12;;;;;;;110.30;30.00;;;;;;;3.66;100.00;99744.78;4998089;28;20042;-78
2021/12/27 04:56:37;;;;;;;102.90;28.25;;;;;;;3.65;100.00;99739.47;5018404;28;20081;-79
2021/12/27 04:59:03;;;;;;;97.82;29.05;;;;;;;3.80;100.00;99741.09;5011330;28;20038;-79
2021/12/27 05:01:28;;;;;;;99.13;28.60;;;;;;;3.77;100.00;99745.88;5012672;28;20026;-78
2021/12/27 05:03:54;;;;;;;98.00;28.95;;;;;;;3.70;100.00;99742.72;5013091;28;20030;-79
2021/12/27 05:06:20;;;;;;;104.85;28.50;;;;;;;3.73;100.00;99749.78;5004024;28;20074;-79
2021/12/27 05:08:45;;;;;;;95.68;28.20;;;;;;;3.70;100.00;99745.44;5000958;28;20042;-79
2021/12/27 05:11:11;;;;;;;99.18;29.08;;;;;;;3.79;100.00;99754.78;4999124;28;20035;-79
2021/12/27 05:13:36;;;;;;;105.35;27.90;;;;;;;3.78;100.00;99739.50;5011566;28;20485;-79
2021/12/27 05:16:03;;;;;;;94.15;27.98;;;;;;;3.88;100.00;99750.56;5013937;28;20049;-78
2021/12/27 05:18:29;;;;;;;95.13;27.13;;;;;;;3.72;100.00;99740.78;4994043;28;20186;-79
2021/12/27 05:20:55;;;;;;;97.35;27.40;;;;;;;3.79;100.00;99749.38;4991980;28;20493;-79
2021/12/27 05:23:20;;;;;;;98.18;28.80;;;;;;;3.85;100.00;99752.50;5014887;28;20030;-79
2021/12/27 05:25:46;;;;;;;92.45;27.73;;;;;;;3.88;100.00;99737.88;5006890;28;20041;-79
2021/12/27 05:28:12;;;;;;;96.45;29.00;;;;;;;3.84;100.00;99731.81;5002665;28;20050;-79
2021/12/27 05:30:39;;;;;;;109.75;29.38;;;;;;;3.85;100.00;99724.56;4999015;28;20038;-79
2021/12/27 05:33:05;;;;;;;91.65;28.27;;;;;;;3.84;100.00;99728.25;4999121;28;20549;-78
2021/12/27 05:35:30;;;;;;;97.20;29.27;;;;;;;3.88;100.00;99735.16;5010307;28;20113;-78
2021/12/27 05:37:56;;;;;;;104.15;28.70;;;;;;;3.94;100.00;99733.91;4994147;28;20524;-79
2021/12/27 05:40:22;;;;;;;85.38;26.50;;;;;;;3.87;100.00;99738.88;4997369;28;20041;-79
2021/12/27 05:42:53;;;;;;;96.68;27.23;;;;;;;3.85;100.00;99736.28;4994513;28;20434;-79
2021/12/27 05:45:19;;;;;;;92.40;29.13;;;;;;;3.94;100.00;99729.34;5013792;28;20038;-79
2021/12/27 05:47:45;;;;;;;86.25;27.63;;;;;;;3.87;100.00;99728.03;5013690;28;20030;-79
2021/12/27 05:50:13;;;;;;;97.47;28.10;;;;;;;3.93;100.00;99735.72;4996637;28;20044;-79
2021/12/27 05:52:39;;;;;;;85.47;26.98;;;;;;;4.00;100.00;99737.03;4988746;28;20417;-79
2021/12/27 05:55:06;;;;;;;81.40;27.13;;;;;;;4.02;100.00;99728.81;4994813;28;20104;-79
2021/12/27 05:57:31;;;;;;;83.22;26.77;;;;;;;3.99;100.00;99723.59;4999004;28;20046;-79
2021/12/27 05:59:57;;;;;;;87.68;28.25;;;;;;;4.05;100.00;99732.16;4996297;28;20110;-79
2021/12/27 06:02:23;;;;;;;90.10;28.27;;;;;;;3.95;100.00;99724.78;5008214;28;20117;-79
2021/12/27 06:04:48;;;;;;;85.93;26.55;;;;;;;4.02;100.00;99726.97;4988581;28;20034;-81
2021/12/27 06:07:14;;;;;;;95.50;28.15;;;;;;;4.01;100.00;99727.06;5006446;28;20509;-79
2021/12/27 06:09:39;;;;;;;82.70;26.27;;;;;;;4.05;100.00;99726.75;4994957;28;20458;-78
2021/12/27 06:12:05;;;;;;;77.43;24.63;;;;;;;4.10;100.00;99728.25;5004242;28;20093;-79
2021/12/27 06:14:30;;;;;;;89.28;27.70;;;;;;;4.03;100.00;99720.56;5003681;28;20037;-80
2021/12/27 06:16:56;;;;;;;84.13;26.73;;;;;;;4.19;100.00;99725.75;5001727;28;20037;-79
2021/12/27 06:19:21;;;;;;;91.07;27.80;;;;;;;4.08;100.00;99720.22;5002252;28;20044;-81
2021/12/27 06:21:48;;;;;;;88.53;26.85;;;;;;;4.07;100.00;99726.63;5011960;28;20030;-81
2021/12/27 06:24:13;;;;;;;80.22;26.02;;;;;;;4.10;100.00;99707.47;5004536;28;20042;-80
2021/12/27 06:26:39;;;;;;;78.20;26.55;;;;;;;4.18;100.00;99718.63;4999352;28;20034;-81
2021/12/27 06:29:04;;;;;;;78.00;26.80;;;;;;;4.09;100.00;99703.00;5002505;28;20425;-80
2021/12/27 06:31:30;;;;;;;92.68;25.77;;;;;;;4.15;100.00;99718.84;5016827;28;20766;-80
2021/12/27 06:33:55;;;;;;;89.03;27.80;;;;;;;4.15;100.00;99720.66;5015993;28;20386;-79
2021/12/27 06:36:21;;;;;;;84.63;26.63;;;;;;;4.21;100.00;99715.69;5013176;28;20095;-80
2021/12/27 06:38:46;;;;;;;82.38;26.85;;;;;;;4.22;100.00;99721.97;4997521;28;20595;-79
2021/12/27 06:41:12;;;;;;;81.03;27.25;;;;;;;4.18;100.00;99713.19;5012361;28;20028;-80
2021/12/27 06:43:37;;;;;;;79.18;25.92;;;;;;;4.13;100.00;99714.50;4994082;28;20077;-81
2021/12/27 06:46:02;;;;;;;85.47;24.85;;;;;;;4.24;100.00;99722.72;4998216;28;20042;-80
2021/12/27 06:48:28;;;;;;;74.93;24.92;;;;;;;4.14;100.00;99717.09;5005052;28;20047;-80
2021/12/27 06:50:54;;;;;;;79.22;25.40;;;;;;;4.15;100.00;99716.13;5003908;28;20530;-80
2021/12/27 06:53:20;;;;;;;78.18;26.15;;;;;;;4.26;100.00;99704.50;5000060;28;20046;-81
2021/12/27 06:55:47;;;;;;;79.15;25.17;;;;;;;4.17;100.00;99708.75;4994932;28;20038;-81
2021/12/27 06:58:13;;;;;;;72.00;24.98;;;;;;;4.13;100.00;99709.97;5011121;28;20844;-80
2021/12/27 07:00:39;;;;;;;78.45;25.95;;;;;;;4.14;100.00;99708.97;5004863;28;20029;-80
2021/12/27 07:03:04;;;;;;;78.55;24.10;;;;;;;4.14;100.00;99706.25;4998812;28;20125;-79
2021/12/27 07:05:30;;;;;;;78.18;25.55;;;;;;;4.21;100.00;99707.56;4998402;28;20040;-81
2021/12/27 07:07:55;;;;;;;76.40;24.20;;;;;;;4.20;100.00;99691.44;5005535;28;20113;-80
2021/12/27 07:10:22;;;;;;;79.60;25.55;;;;;;;4.24;100.00;99690.22;5002824;28;20065;-79
2021/12/27 07:12:48;;;;;;;84.90;25.33;;;;;;;4.19;100.00;99690.53;5000535;28;20038;-79
2021/12/27 07:15:14;;;;;;;79.28;24.92;;;;;;;4.02;100.00;99661.97;4989556;28;20440;-79
2021/12/27 07:17:40;;;;;;;83.03;26.25;;;;;;;4.21;100.00;99685.00;5014121;28;20034;-80
2021/12/27 07:20:06;;;;;;;79.20;24.67;;;;;;;4.12;100.00;99691.09;4995892;28;20061;-80
2021/12/27 07:22:33;;;;;;;76.60;24.13;;;;;;;4.13;100.00;99687.41;5004012;28;20029;-80
2021/12/27 07:24:58;;;;;;;85.00;25.55;;;;;;;4.21;100.00;99683.19;5001577;28;20066;-79
2021/12/27 07:27:24;;;;;;;84.43;24.45;;;;;;;4.15;100.00;99685.44;5005488;28;20105;-80
2021/12/27 07:29:49;;;;;;;71.68;21.75;;;;;;;4.14;100.00;99681.88;5005682;28;20541;-79
2021/12/27 07:32:15;;;;;;;73.95;23.33;;;;;;;4.13;100.00;99680.16;5007278;28;20125;-79
2021/12/27 07:34:41;;;;;;;82.10;25.02;;;;;;;4.17;100.00;99678.94;5005928;28;20150;-79
2021/12/27 07:37:07;;;;;;;85.82;24.17;;;;;;;4.20;100.00;99691.44;5004520;28;20033;-78
2021/12/27 07:39:34;;;;;;;65.32;22.83;;;;;;;4.08;100.00;99676.03;4998878;28;20034;-80
2021/12/27 07:41:59;;;;;;;76.45;23.98;;;;;;;4.08;100.00;99682.31;5021016;28;20393;-79
2021/12/27 07:44:25;;;;;;;70.40;23.00;;;;;;;4.15;100.00;99680.91;5000754;28;20038;-78
2021/12/27 07:46:51;;;;;;;71.53;23.23;;;;;;;4.09;100.00;99680.50;4987566;28;20101;-79
2021/12/27 07:49:17;;;;;;;69.30;22.08;;;;;;;4.10;100.00;99685.78;5006442;28;20052;-79
2021/12/27 07:51:44;;;;;;;75.65;25.13;;;;;;;4.15;100.00;99682.72;4991624;28;20132;-79
2021/12/27 07:54:09;;;;;;;75.47;23.15;;;;;;;4.16;100.00;99681.78;5017904;28;20062;-80
2021/12/27 07:56:35;;;;;;;75.03;22.35;;;;;;;4.15;100.00;99675.50;5004618;28;20023;-80
2021/12/27 07:59:04;;;;;;;76.50;23.17;;;;;;;4.18;100.00;99678.00;5001392;28;20065;-79
2021/12/27 08:01:35;;;;;;;73.40;23.77;;;;;;;4.20;100.00;99675.16;5004075;28;20035;-80
2021/12/27 08:04:01;;;;;;;78.70;25.98;;;;;;;4.18;100.00;99683.41;5003862;28;20092;-80
2021/12/27 08:06:26;;;;;;;81.50;26.17;;;;;;;3.96;100.00;99654.25;5007370;28;20056;-79
2021/12/27 08:08:52;;;;;;;107.10;34.03;;;;;;;4.08;100.00;99673.31;5002657;28;20521;-79
2021/12/27 08:11:18;;;;;;;110.57;38.28;;;;;;;4.00;100.00;99674.75;4994311;28;20041;-79
2021/12/27 08:13:43;;;;;;;127.07;42.75;;;;;;;4.02;100.00;99672.78;5008262;28;20026;-79
2021/12/27 08:16:12;;;;;;;131.48;44.20;;;;;;;3.96;100.00;99681.34;5003208;28;20173;-78
2021/12/27 08:18:41;;;;;;;131.77;42.90;;;;;;;3.90;100.00;99675.50;5006856;28;20041;-80
2021/12/27 08:21:06;;;;;;;131.45;42.30;;;;;;;3.90;100.00;99672.78;4993149;28;20143;-80
2021/12/27 08:23:32;;;;;;;118.82;40.33;;;;;;;3.93;100.00;99680.69;5015676;28;20069;-81
2021/12/27 08:25:57;;;;;;;117.45;39.67;;;;;;;3.90;100.00;99692.59;4998426;28;20405;-81
2021/12/27 08:28:23;;;;;;;130.70;39.88;;;;;;;3.96;100.00;99689.47;4988921;28;20040;-80
2021/12/27 08:30:48;;;;;;;107.72;37.28;;;;;;;3.89;100.00;99688.19;5011533;28;20037;-81
2021/12/27 08:33:14;;;;;;;107.03;34.03;;;;;;;3.90;100.00;99689.88;5016237;28;20548;-81
2021/12/27 08:35:40;;;;;;;103.40;33.42;;;;;;;3.92;100.00;99685.25;5003107;28;20477;-81
2021/12/27 08:38:06;;;;;;;106.88;34.28;;;;;;;3.99;100.00;99677.56;5012782;28;20038;-81
2021/12/27 08:40:32;;;;;;;92.30;32.00;;;;;;;4.05;100.00;99674.44;5002241;28;20062;-80
2021/12/27 08:42:58;;;;;;;76.65;28.55;;;;;;;4.05;100.00;99678.00;5015990;28;20029;-80
2021/12/27 08:45:24;;;;;;;79.50;26.10;;;;;;;4.10;100.00;99676.78;5014292;28;20053;-81
2021/12/27 08:47:50;;;;;;;57.05;23.33;;;;;;;4.09;100.00;99667.81;5008363;28;20043;-81
2021/12/27 08:50:17;;;;;;;68.18;24.25;;;;;;;4.18;100.00;99678.00;4985953;28;20077;-80
2021/12/27 08:52:44;;;;;;;61.53;22.80;;;;;;;4.19;100.00;99668.00;5009334;28;20034;-80
2021/12/27 08:55:10;;;;;;;63.08;23.27;;;;;;;4.26;100.00;99673.84;4981095;28;20385;-80
2021/12/27 08:57:36;;;;;;;64.65;24.55;;;;;;;4.28;100.00;99666.47;4994292;28;20042;-80
2021/12/27 09:00:06;;;;;;;61.38;22.38;;;;;;;4.29;100.00;99663.66;4982415;28;20037;-80
2021/12/27 09:02:31;;;;;;;58.80;22.38;;;;;;;4.42;100.00;99661.78;4996970;28;20057;-81
2021/12/27 09:04:56;;;;;;;56.42;21.08;;;;;;;4.42;100.00;99659.06;4988739;28;20043;-81
2021/12/27 09:07:22;;;;;;;62.47;20.65;;;;;;;4.43;100.00;99657.25;4982108;28;20073;-82
2021/12/27 09:09:47;;;;;;;60.33;19.33;;;;;;;4.46;100.00;99659.72;4981151;28;20041;-80
2021/12/27 09:12:13;;;;;;;51.25;19.88;;;;;;;4.50;100.00;99644.97;4996657;28;20049;-81
2021/12/27 09:14:39;;;;;;;49.97;20.80;;;;;;;4.50;100.00;99639.53;4998917;28;20113;-80
2021/12/27 09:17:05;;;;;;;47.05;22.13;;;;;;;4.49;100.00;99635.09;5001603;28;20462;-81
2021/12/27 09:19:30;;;;;;;57.42;20.80;;;;;;;4.57;100.00;99634.53;4998686;28;20042;-81
2021/12/27 09:21:56;;;;;;;65.35;23.92;;;;;;;4.64;100.00;99640.34;5014098;28;20022;-79
2021/12/27 09:24:22;;;;;;;58.03;23.77;;;;;;;4.71;100.00;99636.22;4988682;28;20084;-79
2021/12/27 09:26:47;;;;;;;54.05;22.52;;;;;;;4.65;100.00;99633.97;5014671;28;20585;-79
2021/12/27 09:29:13;;;;;;;46.75;21.33;;;;;;;4.71;100.00;99641.66;5002302;28;20053;-80
2021/12/27 09:31:38;;;;;;;50.47;19.63;;;;;;;4.77;100.00;99652.03;4992001;28;20038;-80
2021/12/27 09:34:04;;;;;;;46.38;18.13;;;;;;;4.75;100.00;99649.41;4994702;28;20030;-80
2021/12/27 09:36:30;;;;;;;40.17;18.42;;;;;;;4.83;100.00;99657.00;4993854;28;20054;-80
2021/12/27 09:38:56;;;;;;;38.10;17.33;;;;;;;4.85;100.00;99651.47;5001419;28;20029;-80
2021/12/27 09:41:23;;;;;;;43.72;18.60;;;;;;;4.95;100.00;99657.91;5012211;28;20069;-80
2021/12/27 09:43:49;;;;;;;41.10;16.63;;;;;;;4.97;100.00;99658.69;4998591;28;20380;-80
2021/12/27 09:46:14;;;;;;;36.60;16.80;;;;;;;4.92;100.00;99661.75;5006031;28;20118;-80
2021/12/27 09:48:40;;;;;;;31.10;15.10;;;;;;;4.99;100.00;99651.28;5010853;28;20069;-80
2021/12/27 09:51:08;;;;;;;35.50;15.80;;;;;;;5.06;100.00;99644.41;5018300;28;20030;-80
2021/12/27 09:53:33;;;;;;;35.25;16.27;;;;;;;5.08;100.00;99645.19;5016429;28;20089;-80
2021/12/27 09:55:59;;;;;;;40.55;17.70;;;;;;;5.11;100.00;99642.19;4991639;28;20038;-80
2021/12/27 09:58:24;;;;;;;39.17;15.93;;;;;;;5.11;100.00;99635.94;4998126;28;20030;-80
2021/12/27 10:00:50;;;;;;;32.67;16.05;;;;;;;5.19;100.00;99638.91;5003011;28;20037;-80
2021/12/27 10:03:15;;;;;;;36.13;15.32;;;;;;;5.29;100.00;99625.50;5006596;28;20428;-80
2021/12/27 10:05:41;;;;;;;40.70;16.08;;;;;;;5.30;100.00;99622.69;5016116;28;20033;-80
2021/12/27 10:08:07;;;;;;;32.78;15.02;;;;;;;5.37;100.00;99625.78;5018473;28;20385;-80
2021/12/27 10:10:34;;;;;;;33.35;17.05;;;;;;;5.33;100.00;99627.88;5014779;28;20049;-80
2021/12/27 10:13:09;;;;;;;40.58;15.88;;;;;;;5.51;100.00;99632.88;5001078;28;20030;-81
2021/12/27 10:15:38;;;;;;;44.17;17.45;;;;;;;5.75;100.00;99618.34;5000979;28;20051;-81
2021/12/27 10:18:12;;;;;;;39.47;15.05;;;;;;;5.84;100.00;99629.34;5005241;28;20463;-82
2021/12/27 10:20:37;;;;;;;31.80;15.02;;;;;;;5.74;100.00;99622.03;5011413;28;20026;-81
2021/12/27 10:23:03;;;;;;;32.50;14.68;;;;;;;5.95;100.00;99611.31;5003700;28;20114;-82
2021/12/27 10:25:29;;;;;;;28.15;13.95;;;;;;;5.97;100.00;99595.78;4989350;28;20083;-82
2021/12/27 10:27:57;;;;;;;30.17;14.90;;;;;;;5.87;100.00;99596.50;5003343;28;20517;-81
2021/12/27 10:30:25;;;;;;;34.00;15.07;;;;;;;5.81;100.00;99585.25;5003868;28;20042;-82
2021/12/27 10:33:10;;;;;;;29.20;14.43;;;;;;;5.92;100.00;99584.38;4998645;28;20117;-82
2021/12/27 10:35:44;;;;;;;31.98;16.00;;;;;;;6.11;100.00;99578.38;5017627;28;20073;-82
2021/12/27 10:38:22;;;;;;;29.77;15.23;;;;;;;6.00;100.00;99585.56;5009129;28;20050;-81
2021/12/27 10:40:56;;;;;;;31.38;15.85;;;;;;;5.84;100.00;99590.47;5017981;28;20041;-82
2021/12/27 10:43:42;;;;;;;29.48;14.07;;;;;;;5.81;100.00;99579.84;5003998;28;20025;-81
2021/12/27 10:46:10;;;;;;;32.92;15.07;;;;;;;5.76;100.00;99584.78;5020045;28;20045;-81
2021/12/27 10:48:59;;;;;;;31.40;14.85;;;;;;;5.79;100.00;99584.50;5003513;28;20030;-81
2021/12/27 10:51:26;;;;;;;32.45;14.73;;;;;;;5.83;100.00;99580.56;5017798;28;20034;-81
2021/12/27 10:53:52;;;;;;;36.25;15.32;;;;;;;5.87;100.00;99584.75;5010693;28;20022;-81
2021/12/27 10:56:21;;;;;;;30.17;14.68;;;;;;;5.97;100.00;99593.06;5009061;28;20105;-81
2021/12/27 10:58:55;;;;;;;27.23;14.70;;;;;;;6.14;100.00;99597.16;5008141;28;20025;-82
2021/12/27 11:01:23;;;;;;;29.88;14.85;;;;;;;6.19;100.00;99584.03;5010857;28;20038;-81
2021/12/27 11:03:55;;;;;;;30.85;14.00;;;;;;;6.24;100.00;99582.66;5010803;28;20070;-82
2021/12/27 11:06:24;;;;;;;30.63;13.50;;;;;;;6.32;100.00;99575.75;5008484;28;20401;-82
2021/12/27 11:08:51;;;;;;;28.50;13.52;;;;;;;6.11;100.00;99570.22;5010196;28;20038;-82
2021/12/27 11:11:18;;;;;;;28.42;14.13;;;;;;;6.29;100.00;99582.28;5004848;28;20493;-80
2021/12/27 11:13:46;;;;;;;27.73;12.85;;;;;;;6.33;100.00;99569.31;4990364;28;20026;-81
2021/12/27 11:16:12;;;;;;;28.77;12.38;;;;;;;6.27;100.00;99575.28;5001930;28;20034;-81